sensor_id;sensor_type;location;lat;lon;timestamp;P1;durP1;ratioP1;P2;durP2;ratioP2
36585;SDS011;22591;48.314;11.562;2024-02-23T00:00:34;0.85;;;0.60;;
36585;SDS011;22591;48.314;11.562;2024-02-23T00:03:00;0.50;;;0.50;;
36585;SDS011;22591;48.314;11.562;2024-02-23T00:05:26;0.40;;;0.40;;
36585;SDS011;22591;48.314;11.562;2024-02-23T00:07:51;0.30;;;0.30;;
36585;SDS011;22591;48.314;11.562;2024-02-23T00:10:17;0.40;;;0.40;;
36585;SDS011;22591;48.314;11.562;2024-02-23T00:12:42;0.63;;;0.63;;
36585;SDS011;22591;48.314;11.562;2024-02-23T00:15:10;0.50;;;0.50;;
36585;SDS011;22591;48.314;11.562;2024-02-23T00:17:35;0.57;;;0.57;;
36585;SDS011;22591;48.314;11.562;2024-02-23T00:20:01;0.50;;;0.50;;
36585;SDS011;22591;48.314;11.562;2024-02-23T00:22:26;0.45;;;0.45;;
36585;SDS011;22591;48.314;11.562;2024-02-23T00:24:52;0.50;;;0.50;;
36585;SDS011;22591;48.314;11.562;2024-02-23T00:27:18;0.50;;;0.50;;
36585;SDS011;22591;48.314;11.562;2024-02-23T00:29:43;0.50;;;0.50;;
36585;SDS011;22591;48.314;11.562;2024-02-23T00:32:09;0.40;;;0.40;;
36585;SDS011;22591;48.314;11.562;2024-02-23T00:34:34;0.40;;;0.40;;
36585;SDS011;22591;48.314;11.562;2024-02-23T00:37:00;0.50;;;0.50;;
36585;SDS011;22591;48.314;11.562;2024-02-23T00:39:27;0.50;;;0.50;;
36585;SDS011;22591;48.314;11.562;2024-02-23T00:41:52;0.57;;;0.57;;
36585;SDS011;22591;48.314;11.562;2024-02-23T00:44:18;0.47;;;0.47;;
36585;SDS011;22591;48.314;11.562;2024-02-23T00:46:43;1.23;;;0.50;;
36585;SDS011;22591;48.314;11.562;2024-02-23T00:49:09;0.57;;;0.57;;
36585;SDS011;22591;48.314;11.562;2024-02-23T00:51:34;0.30;;;0.30;;
36585;SDS011;22591;48.314;11.562;2024-02-23T00:54:00;0.35;;;0.35;;
36585;SDS011;22591;48.314;11.562;2024-02-23T00:56:26;0.40;;;0.40;;
36585;SDS011;22591;48.314;11.562;2024-02-23T00:58:52;0.70;;;0.70;;
36585;SDS011;22591;48.314;11.562;2024-02-23T01:01:18;0.50;;;0.50;;
36585;SDS011;22591;48.314;11.562;2024-02-23T01:03:43;0.70;;;0.70;;
36585;SDS011;22591;48.314;11.562;2024-02-23T01:06:09;0.47;;;0.47;;
36585;SDS011;22591;48.314;11.562;2024-02-23T01:08:34;1.10;;;0.50;;
36585;SDS011;22591;48.314;11.562;2024-02-23T01:11:00;0.50;;;0.50;;
36585;SDS011;22591;48.314;11.562;2024-02-23T01:13:26;0.57;;;0.57;;
36585;SDS011;22591;48.314;11.562;2024-02-23T01:15:52;0.55;;;0.55;;
36585;SDS011;22591;48.314;11.562;2024-02-23T01:18:19;1.17;;;0.60;;
36585;SDS011;22591;48.314;11.562;2024-02-23T01:20:44;0.60;;;0.60;;
36585;SDS011;22591;48.314;11.562;2024-02-23T01:23:10;0.85;;;0.70;;
36585;SDS011;22591;48.314;11.562;2024-02-23T01:25:35;0.52;;;0.52;;
36585;SDS011;22591;48.314;11.562;2024-02-23T01:28:02;0.80;;;0.60;;
36585;SDS011;22591;48.314;11.562;2024-02-23T01:30:28;0.80;;;0.73;;
36585;SDS011;22591;48.314;11.562;2024-02-23T01:32:53;0.40;;;0.40;;
36585;SDS011;22591;48.314;11.562;2024-02-23T01:35:19;0.63;;;0.60;;
36585;SDS011;22591;48.314;11.562;2024-02-23T01:37:44;0.50;;;0.50;;
36585;SDS011;22591;48.314;11.562;2024-02-23T01:40:10;0.70;;;0.60;;
36585;SDS011;22591;48.314;11.562;2024-02-23T01:42:36;0.70;;;0.60;;
36585;SDS011;22591;48.314;11.562;2024-02-23T01:45:01;0.57;;;0.57;;
36585;SDS011;22591;48.314;11.562;2024-02-23T01:47:28;1.55;;;0.47;;
36585;SDS011;22591;48.314;11.562;2024-02-23T01:49:54;1.55;;;0.60;;
36585;SDS011;22591;48.314;11.562;2024-02-23T01:52:21;0.40;;;0.40;;
36585;SDS011;22591;48.314;11.562;2024-02-23T01:54:47;0.60;;;0.60;;
36585;SDS011;22591;48.314;11.562;2024-02-23T01:57:13;0.45;;;0.45;;
36585;SDS011;22591;48.314;11.562;2024-02-23T01:59:39;0.55;;;0.55;;
36585;SDS011;22591;48.314;11.562;2024-02-23T02:02:05;0.50;;;0.50;;
36585;SDS011;22591;48.314;11.562;2024-02-23T02:04:30;0.85;;;0.60;;
36585;SDS011;22591;48.314;11.562;2024-02-23T02:06:57;0.50;;;0.50;;
36585;SDS011;22591;48.314;11.562;2024-02-23T02:09:24;0.40;;;0.40;;
36585;SDS011;22591;48.314;11.562;2024-02-23T02:11:50;0.40;;;0.40;;
36585;SDS011;22591;48.314;11.562;2024-02-23T02:14:16;0.40;;;0.40;;
36585;SDS011;22591;48.314;11.562;2024-02-23T02:16:43;1.38;;;0.40;;
36585;SDS011;22591;48.314;11.562;2024-02-23T02:19:09;0.52;;;0.50;;
36585;SDS011;22591;48.314;11.562;2024-02-23T02:21:35;0.43;;;0.43;;
36585;SDS011;22591;48.314;11.562;2024-02-23T02:24:01;0.52;;;0.52;;
36585;SDS011;22591;48.314;11.562;2024-02-23T02:26:28;0.60;;;0.60;;
36585;SDS011;22591;48.314;11.562;2024-02-23T02:28:53;0.40;;;0.40;;
36585;SDS011;22591;48.314;11.562;2024-02-23T02:31:19;1.73;;;0.60;;
36585;SDS011;22591;48.314;11.562;2024-02-23T02:33:44;0.40;;;0.40;;
36585;SDS011;22591;48.314;11.562;2024-02-23T02:36:10;0.50;;;0.50;;
36585;SDS011;22591;48.314;11.562;2024-02-23T02:38:36;0.50;;;0.50;;
36585;SDS011;22591;48.314;11.562;2024-02-23T02:41:02;0.45;;;0.45;;
36585;SDS011;22591;48.314;11.562;2024-02-23T02:43:28;0.50;;;0.50;;
36585;SDS011;22591;48.314;11.562;2024-02-23T02:45:54;0.50;;;0.50;;
36585;SDS011;22591;48.314;11.562;2024-02-23T02:48:19;0.88;;;0.88;;
36585;SDS011;22591;48.314;11.562;2024-02-23T02:50:45;0.50;;;0.50;;
36585;SDS011;22591;48.314;11.562;2024-02-23T02:53:11;0.50;;;0.50;;
36585;SDS011;22591;48.314;11.562;2024-02-23T02:55:37;0.50;;;0.50;;
36585;SDS011;22591;48.314;11.562;2024-02-23T02:58:06;0.40;;;0.40;;
36585;SDS011;22591;48.314;11.562;2024-02-23T03:00:31;0.85;;;0.70;;
36585;SDS011;22591;48.314;11.562;2024-02-23T03:02:57;0.50;;;0.50;;
36585;SDS011;22591;48.314;11.562;2024-02-23T03:05:23;0.50;;;0.50;;
36585;SDS011;22591;48.314;11.562;2024-02-23T03:07:48;0.38;;;0.38;;
36585;SDS011;22591;48.314;11.562;2024-02-23T03:10:15;0.70;;;0.70;;
36585;SDS011;22591;48.314;11.562;2024-02-23T03:12:44;0.45;;;0.45;;
36585;SDS011;22591;48.314;11.562;2024-02-23T03:15:13;0.50;;;0.50;;
36585;SDS011;22591;48.314;11.562;2024-02-23T03:17:46;0.80;;;0.80;;
36585;SDS011;22591;48.314;11.562;2024-02-23T03:20:18;0.70;;;0.70;;
36585;SDS011;22591;48.314;11.562;2024-02-23T03:22:50;0.50;;;0.50;;
36585;SDS011;22591;48.314;11.562;2024-02-23T03:25:29;0.38;;;0.38;;
36585;SDS011;22591;48.314;11.562;2024-02-23T03:28:00;0.55;;;0.55;;
36585;SDS011;22591;48.314;11.562;2024-02-23T03:30:28;0.98;;;0.70;;
36585;SDS011;22591;48.314;11.562;2024-02-23T03:33:05;0.55;;;0.55;;
36585;SDS011;22591;48.314;11.562;2024-02-23T03:35:37;0.60;;;0.60;;
36585;SDS011;22591;48.314;11.562;2024-02-23T03:38:07;0.50;;;0.50;;
36585;SDS011;22591;48.314;11.562;2024-02-23T03:40:34;0.50;;;0.50;;
36585;SDS011;22591;48.314;11.562;2024-02-23T03:43:02;1.13;;;0.60;;
36585;SDS011;22591;48.314;11.562;2024-02-23T03:45:53;0.57;;;0.55;;
36585;SDS011;22591;48.314;11.562;2024-02-23T03:48:21;0.70;;;0.70;;
36585;SDS011;22591;48.314;11.562;2024-02-23T03:50:48;0.60;;;0.60;;
36585;SDS011;22591;48.314;11.562;2024-02-23T03:53:14;0.40;;;0.40;;
36585;SDS011;22591;48.314;11.562;2024-02-23T03:55:39;0.47;;;0.47;;
36585;SDS011;22591;48.314;11.562;2024-02-23T03:58:05;0.50;;;0.50;;
36585;SDS011;22591;48.314;11.562;2024-02-23T04:00:31;1.27;;;0.47;;
36585;SDS011;22591;48.314;11.562;2024-02-23T04:02:56;1.30;;;0.80;;
36585;SDS011;22591;48.314;11.562;2024-02-23T04:05:22;0.60;;;0.60;;
36585;SDS011;22591;48.314;11.562;2024-02-23T04:07:47;0.57;;;0.57;;
36585;SDS011;22591;48.314;11.562;2024-02-23T04:10:13;0.60;;;0.60;;
36585;SDS011;22591;48.314;11.562;2024-02-23T04:12:44;1.17;;;0.73;;
36585;SDS011;22591;48.314;11.562;2024-02-23T04:15:14;0.70;;;0.70;;
36585;SDS011;22591;48.314;11.562;2024-02-23T04:17:40;1.15;;;0.60;;
36585;SDS011;22591;48.314;11.562;2024-02-23T04:20:06;0.60;;;0.60;;
36585;SDS011;22591;48.314;11.562;2024-02-23T04:22:34;0.50;;;0.50;;
36585;SDS011;22591;48.314;11.562;2024-02-23T04:25:00;0.63;;;0.63;;
36585;SDS011;22591;48.314;11.562;2024-02-23T04:27:25;0.50;;;0.50;;
36585;SDS011;22591;48.314;11.562;2024-02-23T04:29:51;0.55;;;0.55;;
36585;SDS011;22591;48.314;11.562;2024-02-23T04:32:16;0.50;;;0.50;;
36585;SDS011;22591;48.314;11.562;2024-02-23T04:34:42;0.68;;;0.68;;
36585;SDS011;22591;48.314;11.562;2024-02-23T04:37:07;0.45;;;0.45;;
36585;SDS011;22591;48.314;11.562;2024-02-23T04:39:33;0.50;;;0.50;;
36585;SDS011;22591;48.314;11.562;2024-02-23T04:41:59;0.57;;;0.57;;
36585;SDS011;22591;48.314;11.562;2024-02-23T04:44:25;0.60;;;0.60;;
36585;SDS011;22591;48.314;11.562;2024-02-23T04:46:51;0.50;;;0.50;;
36585;SDS011;22591;48.314;11.562;2024-02-23T04:49:18;0.50;;;0.50;;
36585;SDS011;22591;48.314;11.562;2024-02-23T04:51:43;0.80;;;0.80;;
36585;SDS011;22591;48.314;11.562;2024-02-23T04:54:11;0.63;;;0.63;;
36585;SDS011;22591;48.314;11.562;2024-02-23T04:56:37;0.50;;;0.50;;
36585;SDS011;22591;48.314;11.562;2024-02-23T04:59:04;0.60;;;0.60;;
36585;SDS011;22591;48.314;11.562;2024-02-23T05:01:34;0.57;;;0.57;;
36585;SDS011;22591;48.314;11.562;2024-02-23T05:04:03;0.93;;;0.93;;
36585;SDS011;22591;48.314;11.562;2024-02-23T05:06:30;0.68;;;0.68;;
36585;SDS011;22591;48.314;11.562;2024-02-23T05:08:56;0.52;;;0.52;;
36585;SDS011;22591;48.314;11.562;2024-02-23T05:11:22;0.60;;;0.60;;
36585;SDS011;22591;48.314;11.562;2024-02-23T05:13:49;0.60;;;0.60;;
36585;SDS011;22591;48.314;11.562;2024-02-23T05:16:14;0.50;;;0.50;;
36585;SDS011;22591;48.314;11.562;2024-02-23T05:18:41;0.70;;;0.70;;
36585;SDS011;22591;48.314;11.562;2024-02-23T05:21:08;0.70;;;0.70;;
36585;SDS011;22591;48.314;11.562;2024-02-23T05:23:35;1.65;;;0.50;;
36585;SDS011;22591;48.314;11.562;2024-02-23T05:26:03;0.93;;;0.93;;
36585;SDS011;22591;48.314;11.562;2024-02-23T05:28:29;0.60;;;0.60;;
36585;SDS011;22591;48.314;11.562;2024-02-23T05:30:54;0.60;;;0.60;;
36585;SDS011;22591;48.314;11.562;2024-02-23T05:33:22;0.82;;;0.77;;
36585;SDS011;22591;48.314;11.562;2024-02-23T05:35:49;0.65;;;0.65;;
36585;SDS011;22591;48.314;11.562;2024-02-23T05:38:16;0.80;;;0.60;;
36585;SDS011;22591;48.314;11.562;2024-02-23T05:40:43;0.77;;;0.77;;
36585;SDS011;22591;48.314;11.562;2024-02-23T05:43:09;0.73;;;0.70;;
36585;SDS011;22591;48.314;11.562;2024-02-23T05:45:40;0.70;;;0.70;;
36585;SDS011;22591;48.314;11.562;2024-02-23T05:48:08;0.68;;;0.68;;
36585;SDS011;22591;48.314;11.562;2024-02-23T05:50:34;0.85;;;0.85;;
36585;SDS011;22591;48.314;11.562;2024-02-23T05:53:01;0.65;;;0.65;;
36585;SDS011;22591;48.314;11.562;2024-02-23T05:55:30;0.68;;;0.68;;
36585;SDS011;22591;48.314;11.562;2024-02-23T05:57:57;0.70;;;0.70;;
36585;SDS011;22591;48.314;11.562;2024-02-23T06:00:25;0.50;;;0.50;;
36585;SDS011;22591;48.314;11.562;2024-02-23T06:02:51;0.50;;;0.50;;
36585;SDS011;22591;48.314;11.562;2024-02-23T06:05:16;0.90;;;0.70;;
36585;SDS011;22591;48.314;11.562;2024-02-23T06:07:43;0.77;;;0.60;;
36585;SDS011;22591;48.314;11.562;2024-02-23T06:10:09;0.60;;;0.60;;
36585;SDS011;22591;48.314;11.562;2024-02-23T06:12:37;0.70;;;0.70;;
36585;SDS011;22591;48.314;11.562;2024-02-23T06:15:03;1.55;;;0.80;;
36585;SDS011;22591;48.314;11.562;2024-02-23T06:17:30;0.73;;;0.73;;
36585;SDS011;22591;48.314;11.562;2024-02-23T06:19:57;1.83;;;0.73;;
36585;SDS011;22591;48.314;11.562;2024-02-23T06:22:24;1.27;;;0.70;;
36585;SDS011;22591;48.314;11.562;2024-02-23T06:24:50;0.50;;;0.50;;
36585;SDS011;22591;48.314;11.562;2024-02-23T06:27:16;0.60;;;0.60;;
36585;SDS011;22591;48.314;11.562;2024-02-23T06:29:43;0.68;;;0.60;;
36585;SDS011;22591;48.314;11.562;2024-02-23T06:32:09;0.70;;;0.70;;
36585;SDS011;22591;48.314;11.562;2024-02-23T06:34:37;0.50;;;0.50;;
36585;SDS011;22591;48.314;11.562;2024-02-23T06:37:04;0.88;;;0.70;;
36585;SDS011;22591;48.314;11.562;2024-02-23T06:39:32;0.52;;;0.52;;
36585;SDS011;22591;48.314;11.562;2024-02-23T06:41:58;0.68;;;0.68;;
36585;SDS011;22591;48.314;11.562;2024-02-23T06:44:28;0.50;;;0.50;;
36585;SDS011;22591;48.314;11.562;2024-02-23T06:46:54;0.70;;;0.70;;
36585;SDS011;22591;48.314;11.562;2024-02-23T06:49:21;2.08;;;1.05;;
36585;SDS011;22591;48.314;11.562;2024-02-23T06:51:46;0.63;;;0.63;;
36585;SDS011;22591;48.314;11.562;2024-02-23T06:54:12;0.63;;;0.63;;
36585;SDS011;22591;48.314;11.562;2024-02-23T06:56:37;1.70;;;0.80;;
36585;SDS011;22591;48.314;11.562;2024-02-23T06:59:03;0.55;;;0.55;;
36585;SDS011;22591;48.314;11.562;2024-02-23T07:01:29;1.30;;;0.70;;
36585;SDS011;22591;48.314;11.562;2024-02-23T07:04:00;0.68;;;0.68;;
36585;SDS011;22591;48.314;11.562;2024-02-23T07:06:26;0.90;;;0.80;;
36585;SDS011;22591;48.314;11.562;2024-02-23T07:08:53;0.80;;;0.80;;
36585;SDS011;22591;48.314;11.562;2024-02-23T07:11:20;0.80;;;0.80;;
36585;SDS011;22591;48.314;11.562;2024-02-23T07:13:47;0.80;;;0.65;;
36585;SDS011;22591;48.314;11.562;2024-02-23T07:16:15;0.77;;;0.77;;
36585;SDS011;22591;48.314;11.562;2024-02-23T07:18:41;0.73;;;0.73;;
36585;SDS011;22591;48.314;11.562;2024-02-23T07:21:08;0.73;;;0.73;;
36585;SDS011;22591;48.314;11.562;2024-02-23T07:23:35;0.70;;;0.70;;
36585;SDS011;22591;48.314;11.562;2024-02-23T07:26:02;1.85;;;1.75;;
36585;SDS011;22591;48.314;11.562;2024-02-23T07:28:27;0.80;;;0.80;;
36585;SDS011;22591;48.314;11.562;2024-02-23T07:30:54;0.88;;;0.88;;
36585;SDS011;22591;48.314;11.562;2024-02-23T07:33:21;0.70;;;0.70;;
36585;SDS011;22591;48.314;11.562;2024-02-23T07:35:48;0.60;;;0.60;;
36585;SDS011;22591;48.314;11.562;2024-02-23T07:38:15;0.60;;;0.60;;
36585;SDS011;22591;48.314;11.562;2024-02-23T07:40:44;0.70;;;0.70;;
36585;SDS011;22591;48.314;11.562;2024-02-23T07:43:11;0.80;;;0.80;;
36585;SDS011;22591;48.314;11.562;2024-02-23T07:45:38;0.90;;;0.70;;
36585;SDS011;22591;48.314;11.562;2024-02-23T07:48:07;1.17;;;0.70;;
36585;SDS011;22591;48.314;11.562;2024-02-23T07:50:35;0.77;;;0.77;;
36585;SDS011;22591;48.314;11.562;2024-02-23T07:53:01;0.80;;;0.80;;
36585;SDS011;22591;48.314;11.562;2024-02-23T07:55:27;2.13;;;1.00;;
36585;SDS011;22591;48.314;11.562;2024-02-23T07:57:52;1.38;;;0.80;;
36585;SDS011;22591;48.314;11.562;2024-02-23T08:00:22;0.73;;;0.70;;
36585;SDS011;22591;48.314;11.562;2024-02-23T08:02:49;1.08;;;0.70;;
36585;SDS011;22591;48.314;11.562;2024-02-23T08:05:16;1.73;;;0.73;;
36585;SDS011;22591;48.314;11.562;2024-02-23T08:07:43;0.77;;;0.77;;
36585;SDS011;22591;48.314;11.562;2024-02-23T08:10:11;1.25;;;0.70;;
36585;SDS011;22591;48.314;11.562;2024-02-23T08:12:38;0.70;;;0.70;;
36585;SDS011;22591;48.314;11.562;2024-02-23T08:15:05;0.70;;;0.70;;
36585;SDS011;22591;48.314;11.562;2024-02-23T08:17:32;2.08;;;0.95;;
36585;SDS011;22591;48.314;11.562;2024-02-23T08:19:59;0.73;;;0.73;;
36585;SDS011;22591;48.314;11.562;2024-02-23T08:22:26;0.80;;;0.80;;
36585;SDS011;22591;48.314;11.562;2024-02-23T08:24:53;1.35;;;0.80;;
36585;SDS011;22591;48.314;11.562;2024-02-23T08:27:19;0.80;;;0.80;;
36585;SDS011;22591;48.314;11.562;2024-02-23T08:29:46;0.77;;;0.77;;
36585;SDS011;22591;48.314;11.562;2024-02-23T08:32:13;0.80;;;0.80;;
36585;SDS011;22591;48.314;11.562;2024-02-23T08:34:42;1.58;;;0.90;;
36585;SDS011;22591;48.314;11.562;2024-02-23T08:37:07;0.80;;;0.75;;
36585;SDS011;22591;48.314;11.562;2024-02-23T08:39:33;0.88;;;0.70;;
36585;SDS011;22591;48.314;11.562;2024-02-23T08:42:02;0.80;;;0.80;;
36585;SDS011;22591;48.314;11.562;2024-02-23T08:44:28;1.25;;;1.00;;
36585;SDS011;22591;48.314;11.562;2024-02-23T08:46:55;1.45;;;1.10;;
36585;SDS011;22591;48.314;11.562;2024-02-23T08:49:22;1.92;;;1.17;;
36585;SDS011;22591;48.314;11.562;2024-02-23T08:51:48;1.98;;;1.05;;
36585;SDS011;22591;48.314;11.562;2024-02-23T08:54:15;1.67;;;0.95;;
36585;SDS011;22591;48.314;11.562;2024-02-23T08:56:41;1.08;;;0.90;;
36585;SDS011;22591;48.314;11.562;2024-02-23T08:59:10;2.75;;;1.17;;
36585;SDS011;22591;48.314;11.562;2024-02-23T09:01:35;2.05;;;1.10;;
36585;SDS011;22591;48.314;11.562;2024-02-23T09:04:03;1.33;;;1.02;;
36585;SDS011;22591;48.314;11.562;2024-02-23T09:06:30;1.02;;;1.02;;
36585;SDS011;22591;48.314;11.562;2024-02-23T09:08:59;0.98;;;0.95;;
36585;SDS011;22591;48.314;11.562;2024-02-23T09:11:26;1.33;;;1.15;;
36585;SDS011;22591;48.314;11.562;2024-02-23T09:13:52;2.42;;;1.02;;
36585;SDS011;22591;48.314;11.562;2024-02-23T09:16:18;1.58;;;1.00;;
36585;SDS011;22591;48.314;11.562;2024-02-23T09:18:45;0.93;;;0.93;;
36585;SDS011;22591;48.314;11.562;2024-02-23T09:21:11;1.70;;;1.02;;
36585;SDS011;22591;48.314;11.562;2024-02-23T09:23:39;3.60;;;1.25;;
36585;SDS011;22591;48.314;11.562;2024-02-23T09:26:08;1.83;;;1.20;;
36585;SDS011;22591;48.314;11.562;2024-02-23T09:28:36;0.90;;;0.90;;
36585;SDS011;22591;48.314;11.562;2024-02-23T09:31:03;1.95;;;1.40;;
36585;SDS011;22591;48.314;11.562;2024-02-23T09:33:32;2.63;;;1.10;;
36585;SDS011;22591;48.314;11.562;2024-02-23T09:35:59;2.60;;;1.50;;
36585;SDS011;22591;48.314;11.562;2024-02-23T09:38:27;1.63;;;0.90;;
36585;SDS011;22591;48.314;11.562;2024-02-23T09:40:57;2.30;;;1.30;;
36585;SDS011;22591;48.314;11.562;2024-02-23T09:43:23;1.38;;;1.27;;
36585;SDS011;22591;48.314;11.562;2024-02-23T09:45:57;3.05;;;1.35;;
36585;SDS011;22591;48.314;11.562;2024-02-23T09:48:27;1.88;;;1.20;;
36585;SDS011;22591;48.314;11.562;2024-02-23T09:50:59;1.10;;;0.90;;
36585;SDS011;22591;48.314;11.562;2024-02-23T09:53:25;2.15;;;1.17;;
36585;SDS011;22591;48.314;11.562;2024-02-23T09:55:52;3.25;;;0.90;;
36585;SDS011;22591;48.314;11.562;2024-02-23T09:58:21;5.40;;;1.38;;
36585;SDS011;22591;48.314;11.562;2024-02-23T10:00:52;2.90;;;1.10;;
36585;SDS011;22591;48.314;11.562;2024-02-23T10:03:19;0.77;;;0.77;;
36585;SDS011;22591;48.314;11.562;2024-02-23T10:05:45;1.38;;;0.82;;
36585;SDS011;22591;48.314;11.562;2024-02-23T10:08:13;5.55;;;1.35;;
36585;SDS011;22591;48.314;11.562;2024-02-23T10:10:39;2.42;;;1.23;;
36585;SDS011;22591;48.314;11.562;2024-02-23T10:13:06;1.05;;;0.90;;
36585;SDS011;22591;48.314;11.562;2024-02-23T10:15:33;1.25;;;0.93;;
36585;SDS011;22591;48.314;11.562;2024-02-23T10:17:58;1.25;;;1.08;;
36585;SDS011;22591;48.314;11.562;2024-02-23T10:20:24;2.10;;;0.82;;
36585;SDS011;22591;48.314;11.562;2024-02-23T10:22:49;1.25;;;1.00;;
36585;SDS011;22591;48.314;11.562;2024-02-23T10:25:17;1.50;;;1.27;;
36585;SDS011;22591;48.314;11.562;2024-02-23T10:27:44;1.02;;;1.02;;
36585;SDS011;22591;48.314;11.562;2024-02-23T10:30:10;1.50;;;0.93;;
36585;SDS011;22591;48.314;11.562;2024-02-23T10:32:39;1.90;;;1.02;;
36585;SDS011;22591;48.314;11.562;2024-02-23T10:35:09;1.40;;;1.00;;
36585;SDS011;22591;48.314;11.562;2024-02-23T10:37:38;0.90;;;0.85;;
36585;SDS011;22591;48.314;11.562;2024-02-23T10:40:12;0.85;;;0.85;;
36585;SDS011;22591;48.314;11.562;2024-02-23T10:42:40;5.28;;;1.00;;
36585;SDS011;22591;48.314;11.562;2024-02-23T10:45:12;2.60;;;0.90;;
36585;SDS011;22591;48.314;11.562;2024-02-23T10:47:43;2.65;;;0.80;;
36585;SDS011;22591;48.314;11.562;2024-02-23T10:50:10;1.85;;;1.00;;
36585;SDS011;22591;48.314;11.562;2024-02-23T10:52:43;1.38;;;0.90;;
36585;SDS011;22591;48.314;11.562;2024-02-23T10:55:09;3.30;;;1.13;;
36585;SDS011;22591;48.314;11.562;2024-02-23T10:57:35;2.08;;;0.93;;
36585;SDS011;22591;48.314;11.562;2024-02-23T11:00:02;2.63;;;0.88;;
36585;SDS011;22591;48.314;11.562;2024-02-23T11:02:31;0.98;;;0.88;;
36585;SDS011;22591;48.314;11.562;2024-02-23T11:05:00;0.82;;;0.80;;
36585;SDS011;22591;48.314;11.562;2024-02-23T11:07:29;1.73;;;1.08;;
36585;SDS011;22591;48.314;11.562;2024-02-23T11:10:01;1.33;;;1.00;;
36585;SDS011;22591;48.314;11.562;2024-02-23T11:12:29;2.05;;;0.98;;
36585;SDS011;22591;48.314;11.562;2024-02-23T11:14:59;2.03;;;1.00;;
36585;SDS011;22591;48.314;11.562;2024-02-23T11:17:54;5.82;;;1.10;;
36585;SDS011;22591;48.314;11.562;2024-02-23T11:20:23;2.00;;;0.82;;
36585;SDS011;22591;48.314;11.562;2024-02-23T11:22:52;1.13;;;0.70;;
36585;SDS011;22591;48.314;11.562;2024-02-23T11:25:26;2.40;;;1.10;;
36585;SDS011;22591;48.314;11.562;2024-02-23T11:27:52;4.40;;;0.70;;
36585;SDS011;22591;48.314;11.562;2024-02-23T11:30:20;2.80;;;0.80;;
36585;SDS011;22591;48.314;11.562;2024-02-23T11:32:47;3.90;;;0.98;;
36585;SDS011;22591;48.314;11.562;2024-02-23T11:35:19;1.48;;;1.00;;
36585;SDS011;22591;48.314;11.562;2024-02-23T11:37:54;3.60;;;0.90;;
36585;SDS011;22591;48.314;11.562;2024-02-23T11:40:27;3.70;;;1.05;;
36585;SDS011;22591;48.314;11.562;2024-02-23T11:42:56;1.45;;;0.90;;
36585;SDS011;22591;48.314;11.562;2024-02-23T11:45:23;2.58;;;0.98;;
36585;SDS011;22591;48.314;11.562;2024-02-23T11:47:50;3.25;;;1.23;;
36585;SDS011;22591;48.314;11.562;2024-02-23T11:50:17;2.28;;;1.80;;
36585;SDS011;22591;48.314;11.562;2024-02-23T11:52:47;2.20;;;0.90;;
36585;SDS011;22591;48.314;11.562;2024-02-23T11:55:13;1.90;;;0.95;;
36585;SDS011;22591;48.314;11.562;2024-02-23T11:57:47;2.35;;;1.00;;
36585;SDS011;22591;48.314;11.562;2024-02-23T12:00:15;1.17;;;0.90;;
36585;SDS011;22591;48.314;11.562;2024-02-23T12:02:43;0.80;;;0.80;;
36585;SDS011;22591;48.314;11.562;2024-02-23T12:05:11;0.80;;;0.80;;
36585;SDS011;22591;48.314;11.562;2024-02-23T12:07:36;1.23;;;1.13;;
36585;SDS011;22591;48.314;11.562;2024-02-23T12:10:04;2.03;;;0.73;;
36585;SDS011;22591;48.314;11.562;2024-02-23T12:12:33;0.80;;;0.80;;
36585;SDS011;22591;48.314;11.562;2024-02-23T12:14:59;1.63;;;0.90;;
36585;SDS011;22591;48.314;11.562;2024-02-23T12:17:28;1.25;;;1.05;;
36585;SDS011;22591;48.314;11.562;2024-02-23T12:19:57;2.15;;;0.85;;
36585;SDS011;22591;48.314;11.562;2024-02-23T12:22:25;0.85;;;0.70;;
36585;SDS011;22591;48.314;11.562;2024-02-23T12:24:57;0.85;;;0.85;;
36585;SDS011;22591;48.314;11.562;2024-02-23T12:27:24;1.10;;;0.88;;
36585;SDS011;22591;48.314;11.562;2024-02-23T12:29:52;3.22;;;0.95;;
36585;SDS011;22591;48.314;11.562;2024-02-23T12:32:19;0.95;;;0.95;;
36585;SDS011;22591;48.314;11.562;2024-02-23T12:34:46;1.10;;;0.70;;
36585;SDS011;22591;48.314;11.562;2024-02-23T12:37:15;0.82;;;0.82;;
36585;SDS011;22591;48.314;11.562;2024-02-23T12:39:42;1.02;;;1.00;;
36585;SDS011;22591;48.314;11.562;2024-02-23T12:42:10;1.13;;;0.98;;
36585;SDS011;22591;48.314;11.562;2024-02-23T12:44:37;0.80;;;0.80;;
36585;SDS011;22591;48.314;11.562;2024-02-23T12:47:03;0.60;;;0.60;;
36585;SDS011;22591;48.314;11.562;2024-02-23T12:49:29;1.00;;;0.80;;
36585;SDS011;22591;48.314;11.562;2024-02-23T12:51:56;2.38;;;1.17;;
36585;SDS011;22591;48.314;11.562;2024-02-23T12:54:22;2.03;;;1.92;;
36585;SDS011;22591;48.314;11.562;2024-02-23T12:56:47;0.88;;;0.70;;
36585;SDS011;22591;48.314;11.562;2024-02-23T12:59:13;0.75;;;0.50;;
36585;SDS011;22591;48.314;11.562;2024-02-23T13:01:38;0.70;;;0.70;;
36585;SDS011;22591;48.314;11.562;2024-02-23T13:04:04;1.33;;;0.70;;
36585;SDS011;22591;48.314;11.562;2024-02-23T13:06:37;0.68;;;0.68;;
36585;SDS011;22591;48.314;11.562;2024-02-23T13:09:07;0.95;;;0.95;;
36585;SDS011;22591;48.314;11.562;2024-02-23T13:11:34;1.25;;;0.70;;
36585;SDS011;22591;48.314;11.562;2024-02-23T13:14:04;1.95;;;1.30;;
36585;SDS011;22591;48.314;11.562;2024-02-23T13:16:29;0.70;;;0.70;;
36585;SDS011;22591;48.314;11.562;2024-02-23T13:18:56;1.17;;;0.70;;
36585;SDS011;22591;48.314;11.562;2024-02-23T13:21:22;0.70;;;0.70;;
36585;SDS011;22591;48.314;11.562;2024-02-23T13:23:49;0.98;;;0.73;;
36585;SDS011;22591;48.314;11.562;2024-02-23T13:26:14;0.50;;;0.45;;
36585;SDS011;22591;48.314;11.562;2024-02-23T13:28:44;1.05;;;0.75;;
36585;SDS011;22591;48.314;11.562;2024-02-23T13:31:11;2.08;;;0.82;;
36585;SDS011;22591;48.314;11.562;2024-02-23T13:33:37;0.70;;;0.70;;
36585;SDS011;22591;48.314;11.562;2024-02-23T13:36:03;0.50;;;0.50;;
36585;SDS011;22591;48.314;11.562;2024-02-23T13:38:29;0.95;;;0.95;;
36585;SDS011;22591;48.314;11.562;2024-02-23T13:40:57;2.40;;;0.70;;
36585;SDS011;22591;48.314;11.562;2024-02-23T13:43:23;0.75;;;0.75;;
36585;SDS011;22591;48.314;11.562;2024-02-23T13:45:52;0.85;;;0.70;;
36585;SDS011;22591;48.314;11.562;2024-02-23T13:48:20;1.42;;;1.13;;
36585;SDS011;22591;48.314;11.562;2024-02-23T13:50:47;0.70;;;0.70;;
36585;SDS011;22591;48.314;11.562;2024-02-23T13:53:15;0.77;;;0.77;;
36585;SDS011;22591;48.314;11.562;2024-02-23T13:55:42;0.88;;;0.77;;
36585;SDS011;22591;48.314;11.562;2024-02-23T13:58:09;0.70;;;0.70;;
36585;SDS011;22591;48.314;11.562;2024-02-23T14:00:35;0.75;;;0.75;;
36585;SDS011;22591;48.314;11.562;2024-02-23T14:03:00;0.73;;;0.73;;
36585;SDS011;22591;48.314;11.562;2024-02-23T14:05:29;0.77;;;0.77;;
36585;SDS011;22591;48.314;11.562;2024-02-23T14:07:56;1.30;;;0.65;;
36585;SDS011;22591;48.314;11.562;2024-02-23T14:10:22;1.70;;;0.68;;
36585;SDS011;22591;48.314;11.562;2024-02-23T14:12:48;0.75;;;0.73;;
36585;SDS011;22591;48.314;11.562;2024-02-23T14:15:17;0.85;;;0.85;;
36585;SDS011;22591;48.314;11.562;2024-02-23T14:17:44;0.70;;;0.70;;
36585;SDS011;22591;48.314;11.562;2024-02-23T14:20:11;0.65;;;0.65;;
36585;SDS011;22591;48.314;11.562;2024-02-23T14:22:39;0.75;;;0.75;;
36585;SDS011;22591;48.314;11.562;2024-02-23T14:25:05;1.05;;;0.70;;
36585;SDS011;22591;48.314;11.562;2024-02-23T14:27:34;0.75;;;0.75;;
36585;SDS011;22591;48.314;11.562;2024-02-23T14:30:02;0.73;;;0.73;;
36585;SDS011;22591;48.314;11.562;2024-02-23T14:32:28;0.70;;;0.70;;